首页
METAR-TAF:

METAR-TAF

机场 :

姆万扎, 坦桑尼亚

纬度: 02-28S, 经度: 032-55E, 海拔: 1139米

当前天气观测

该预报发布于1小时和14分钟前的04:00 UTC
静风
温度 19°C
湿度 73%
气压 1019 hPa
能见度10公里或以上
少量云层高于1900英尺
少量云层高于2000英尺, 积雨云.
多云层高于9000英尺

METAR: HTMW 170400Z 00000KT 9999 FEW019 FEW020CB BKN090 19/14 Q1019 NOSIG

时间: 08:14 (05:14 UTC)

预报

该预报发布于6小时和14分钟前的23:00 UTC
预报有效从17日的 00点(UTC)到 17日的 24点(UTC)
风速节,风向
能见度10公里或以上
少量云层高于1900英尺
少量云层高于2000英尺, 积雨云.
多云层高于8000英尺
成为
从 17日的 06点(UTC)到 17日的 08点(UTC)
风速10节,风向东转东南
成为
从 17日的 13点(UTC)到 17日的 15点(UTC)
风速10节,风向北转西北
少量云层高于2600英尺
少量云层高于2700英尺, 积雨云.

TAF: HTMW 162300Z 1700/1724 00000KT 9999 FEW019 FEW020CB BKN080 BECMG 1706/1708 12010KT BECMG 1713/1715 34010KT FEW026 FEW027CB

超过4000个机场的气象观测和天气预报(METAR&TAF报告)。

可查询的气象台以黄色和红色小点在地图上表示。

将鼠标移到小点上方,可查看气象台名称。

然后点击查看天气观测和预报。

如需切换地图:点击带黑十字的绿色按钮放大地图;点击带横线的绿色按钮缩小地图;或者点击绿色箭头查看邻近地区的地图。


METAR-TAF: